Terminal Aerodrome Forecast
Issued by NWS

Home | Current Version | Previous Version | Text Only | Print | Product List | Glossary On
Versions: 1 2 3 4 5 6 7 8 9 10 11 12 13 14 15 16 17
314
FTUS41 KILN 211739
TAFLCK
TAF
KLCK 211739Z 2118/2218 19010KT P6SM SCT030 BKN050 OVC100
      TEMPO 2118/2119 BKN009
     FM212300 VRB04KT P6SM FEW050 SCT200
     FM221100 VRB03KT P6SM VCSH BKN050
      TEMPO 2214/2218 5SM -SHRA BR BKN020 OVC040=

USA.gov is the U.S. government's official web portal to all federal, state and local government web resources and services.